createdAt,value
2019-04-04T00:02:19.103Z,12.33
2019-04-04T00:04:53.748Z,11.73
2019-04-04T00:07:30.141Z,12.17
2019-04-04T00:10:04.140Z,11.00
2019-04-04T00:12:39.649Z,11.00
2019-04-04T00:15:15.446Z,11.47
2019-04-04T00:17:51.853Z,12.30
2019-04-04T00:20:24.687Z,11.10
2019-04-04T00:22:58.112Z,13.37
2019-04-04T00:25:35.196Z,10.93
2019-04-04T00:28:08.475Z,11.80
2019-04-04T00:30:43.915Z,11.07
2019-04-04T00:33:17.317Z,10.63
2019-04-04T00:35:52.815Z,12.17
2019-04-04T00:38:27.763Z,11.87
2019-04-04T00:41:02.586Z,12.47
2019-04-04T00:43:35.957Z,11.07
2019-04-04T00:46:11.011Z,12.40
2019-04-04T00:48:45.053Z,12.53
2019-04-04T00:51:18.531Z,11.40
2019-04-04T00:53:52.625Z,10.57
2019-04-04T00:56:26.003Z,11.27
2019-04-04T00:59:00.307Z,12.43
2019-04-04T01:01:35.029Z,11.13
2019-04-04T01:04:09.351Z,12.17
2019-04-04T01:06:44.218Z,11.60
2019-04-04T01:09:19.372Z,11.77
2019-04-04T01:11:52.942Z,11.40
2019-04-04T01:14:30.278Z,14.10
2019-04-04T01:17:04.036Z,12.17
2019-04-04T01:19:39.200Z,15.33
2019-04-04T01:22:14.220Z,13.17
2019-04-04T01:24:49.156Z,11.53
2019-04-04T01:27:23.499Z,12.17
2019-04-04T01:29:58.148Z,11.67
2019-04-04T01:32:31.267Z,11.47
2019-04-04T01:35:04.393Z,11.87
2019-04-04T01:37:39.739Z,12.20
2019-04-04T01:40:15.357Z,11.10
2019-04-04T01:42:50.667Z,11.37
2019-04-04T01:45:25.314Z,10.60
2019-04-04T01:47:58.751Z,12.57
2019-04-04T01:50:31.916Z,9.90
2019-04-04T01:53:06.574Z,11.20
2019-04-04T01:55:39.538Z,10.57
2019-04-04T01:58:14.252Z,9.73
2019-04-04T02:00:47.529Z,9.70
2019-04-04T02:03:23.357Z,9.80
2019-04-04T02:05:58.158Z,9.73
2019-04-04T02:08:32.188Z,9.87
2019-04-04T02:11:06.623Z,9.73
2019-04-04T02:13:40.889Z,9.30
2019-04-04T02:16:17.073Z,8.87
2019-04-04T02:18:53.585Z,9.73
2019-04-04T02:21:28.450Z,9.67
2019-04-04T02:24:02.900Z,9.57
2019-04-04T02:26:37.894Z,8.13
2019-04-04T02:29:12.761Z,9.33
2019-04-04T02:31:53.591Z,9.33
2019-04-04T02:34:27.520Z,8.67
2019-04-04T02:37:00.737Z,9.20
2019-04-04T02:39:38.736Z,9.87
2019-04-04T02:42:11.860Z,9.17
2019-04-04T02:44:46.537Z,8.93
2019-04-04T02:47:21.349Z,11.57
2019-04-04T02:50:00.509Z,10.50
2019-04-04T02:52:32.507Z,11.43
2019-04-04T02:55:06.157Z,10.80
2019-04-04T02:57:46.621Z,10.20
2019-04-04T03:00:20.779Z,10.80
2019-04-04T03:02:57.479Z,13.60
2019-04-04T03:05:30.688Z,11.90
2019-04-04T03:08:04.846Z,12.50
2019-04-04T03:10:38.304Z,11.70
2019-04-04T03:13:12.665Z,12.67
2019-04-04T03:15:48.214Z,13.43
2019-04-04T03:18:21.741Z,11.73
2019-04-04T03:20:56.711Z,11.03
2019-04-04T03:23:33.994Z,10.03
2019-04-04T03:26:09.066Z,11.13
2019-04-04T03:28:44.099Z,10.03
2019-04-04T03:31:18.377Z,9.93
2019-04-04T03:33:51.424Z,10.47
2019-04-04T03:36:25.496Z,11.00
2019-04-04T03:38:58.624Z,9.80
2019-04-04T03:41:36.668Z,10.33
2019-04-04T03:44:11.990Z,12.33
2019-04-04T03:46:51.965Z,11.37
2019-04-04T03:49:26.872Z,9.83
2019-04-04T03:52:03.022Z,10.30
2019-04-04T03:54:36.092Z,11.40
2019-04-04T03:57:12.197Z,11.77
2019-04-04T03:59:47.090Z,10.37
2019-04-04T04:02:23.773Z,11.17
2019-04-04T04:05:00.491Z,10.60
2019-04-04T04:07:35.206Z,11.10
2019-04-04T04:10:10.642Z,11.77
2019-04-04T04:12:44.576Z,10.80
2019-04-04T04:15:17.557Z,10.80
2019-04-04T04:17:51.817Z,12.00
2019-04-04T04:20:24.650Z,14.13
2019-04-04T04:22:59.473Z,12.03
2019-04-04T04:25:35.213Z,12.93
2019-04-04T04:28:07.977Z,12.37
2019-04-04T04:30:41.604Z,13.03
2019-04-04T04:33:15.096Z,12.37
2019-04-04T04:35:48.004Z,11.77
2019-04-04T04:38:25.615Z,12.67
2019-04-04T04:40:56.555Z,13.17
2019-04-04T04:43:33.438Z,12.47
2019-04-04T04:46:05.437Z,11.47
2019-04-04T04:48:38.955Z,13.50
2019-04-04T04:51:12.715Z,12.43
2019-04-04T04:53:50.177Z,11.90
2019-04-04T04:56:22.308Z,14.33
2019-04-04T04:58:56.006Z,13.00
2019-04-04T05:01:29.338Z,17.13
2019-04-04T05:04:03.396Z,14.33
2019-04-04T05:06:36.666Z,12.30
2019-04-04T05:09:13.954Z,12.40
2019-04-04T05:11:50.255Z,16.03
2019-04-04T05:14:23.982Z,15.53
2019-04-04T05:16:57.400Z,11.30
2019-04-04T05:19:31.085Z,12.13
2019-04-04T05:22:07.127Z,13.73
2019-04-04T05:24:41.829Z,13.00
2019-04-04T05:27:15.628Z,12.77
2019-04-04T05:29:50.865Z,13.70
2019-04-04T05:32:26.184Z,17.33
2019-04-04T05:35:01.348Z,12.53
2019-04-04T05:37:37.986Z,17.13
2019-04-04T05:40:12.745Z,14.33
2019-04-04T05:42:48.358Z,12.80
2019-04-04T05:45:25.665Z,13.20
2019-04-04T05:48:00.619Z,15.57
2019-04-04T05:50:36.768Z,14.93
2019-04-04T05:53:10.106Z,15.53
2019-04-04T05:55:43.909Z,16.87
2019-04-04T05:58:21.751Z,16.07
2019-04-04T06:00:57.590Z,15.03
2019-04-04T06:03:30.018Z,19.13
2019-04-04T06:06:04.017Z,20.10
2019-04-04T06:08:42.501Z,21.13
2019-04-04T06:11:21.644Z,19.63
2019-04-04T06:13:59.023Z,18.60
2019-04-04T06:16:35.033Z,16.73
2019-04-04T06:19:10.107Z,19.43
2019-04-04T06:21:45.207Z,15.80
2019-04-04T06:24:22.738Z,11.90
2019-04-04T06:26:58.627Z,16.60
2019-04-04T06:29:33.521Z,11.13
2019-04-04T06:32:09.165Z,15.27
2019-04-04T06:34:44.847Z,15.20
2019-04-04T06:37:20.711Z,14.80
2019-04-04T06:39:54.488Z,16.30
2019-04-04T06:42:30.226Z,17.87
2019-04-04T06:45:03.901Z,16.43
2019-04-04T06:47:40.574Z,15.57
2019-04-04T06:50:14.054Z,17.93
2019-04-04T06:52:50.410Z,18.47
2019-04-04T06:55:28.323Z,16.87
2019-04-04T06:58:02.112Z,19.00
2019-04-04T07:00:35.832Z,18.97
2019-04-04T07:03:11.440Z,16.70
2019-04-04T07:05:51.062Z,17.57
2019-04-04T07:08:26.405Z,17.93
2019-04-04T07:11:03.345Z,15.30
2019-04-04T07:13:42.661Z,15.37
2019-04-04T07:16:14.209Z,14.90
2019-04-04T07:18:47.888Z,16.60
2019-04-04T07:21:21.340Z,15.03
2019-04-04T07:23:54.923Z,16.53
2019-04-04T07:26:28.907Z,24.83
2019-04-04T07:29:05.801Z,17.53
2019-04-04T07:31:40.774Z,18.63
2019-04-04T07:34:16.569Z,13.70
2019-04-04T07:36:51.858Z,12.77
2019-04-04T07:39:25.869Z,14.90
2019-04-04T07:42:09.025Z,13.03
2019-04-04T07:44:42.954Z,12.30
2019-04-04T07:47:18.808Z,10.50
2019-04-04T07:49:58.270Z,13.60
2019-04-04T07:52:35.519Z,12.60
2019-04-04T07:55:11.059Z,11.40
2019-04-04T07:57:46.457Z,11.20
2019-04-04T08:00:20.297Z,9.33
2019-04-04T08:02:54.405Z,10.47
2019-04-04T08:05:27.910Z,8.20
2019-04-04T08:08:05.757Z,12.40
2019-04-04T08:10:39.359Z,12.47
2019-04-04T08:13:14.190Z,8.87
2019-04-04T08:15:49.339Z,10.37
2019-04-04T08:18:24.560Z,8.80
2019-04-04T08:20:59.971Z,7.57
2019-04-04T08:23:35.140Z,8.83
2019-04-04T08:26:10.158Z,10.33
2019-04-04T08:28:45.633Z,8.00
2019-04-04T08:31:20.679Z,7.23
2019-04-04T08:33:54.521Z,7.40
2019-04-04T08:36:28.153Z,7.80
2019-04-04T08:39:07.989Z,8.60
2019-04-04T08:41:41.865Z,6.87
2019-04-04T08:44:17.547Z,7.47
2019-04-04T08:46:55.614Z,8.30
2019-04-04T08:49:30.863Z,5.17
2019-04-04T08:52:16.058Z,8.00
2019-04-04T08:54:42.880Z,7.57
2019-04-04T08:57:18.335Z,7.63
2019-04-04T08:59:57.717Z,8.00
2019-04-04T09:02:33.258Z,7.50
2019-04-04T09:05:12.145Z,6.20
2019-04-04T09:07:44.205Z,6.60
2019-04-04T09:10:21.106Z,6.93
2019-04-04T09:12:55.624Z,6.10
2019-04-04T09:15:32.219Z,10.00
2019-04-04T09:18:09.416Z,10.67
2019-04-04T09:20:41.611Z,7.60
2019-04-04T09:23:17.897Z,9.73
2019-04-04T09:25:51.239Z,6.30
2019-04-04T09:28:28.233Z,7.83
2019-04-04T09:31:02.234Z,8.27
2019-04-04T09:33:37.099Z,7.23
2019-04-04T09:36:11.338Z,9.23
2019-04-04T09:38:46.634Z,6.60
2019-04-04T09:41:21.637Z,6.50
2019-04-04T09:43:59.607Z,8.30
2019-04-04T09:46:34.426Z,8.40
2019-04-04T09:49:14.390Z,8.50
2019-04-04T09:51:51.252Z,10.77
2019-04-04T09:54:28.380Z,9.57
2019-04-04T09:57:03.744Z,7.03
2019-04-04T09:59:40.741Z,6.83
2019-04-04T10:02:15.031Z,6.17
2019-04-04T10:04:50.876Z,5.73
2019-04-04T10:07:25.323Z,7.07
2019-04-04T10:10:00.449Z,6.63
2019-04-04T10:12:33.498Z,8.30
2019-04-04T10:15:09.799Z,6.20
2019-04-04T10:17:44.237Z,6.80
2019-04-04T10:20:18.999Z,6.10
2019-04-04T10:22:53.690Z,7.77
2019-04-04T10:25:30.682Z,9.20
2019-04-04T10:28:04.465Z,7.27
2019-04-04T10:30:39.008Z,7.20
2019-04-04T10:33:15.836Z,7.37
2019-04-04T10:35:52.392Z,9.33
2019-04-04T10:38:27.367Z,7.63
2019-04-04T10:41:10.922Z,7.27
2019-04-04T10:43:46.975Z,5.80
2019-04-04T10:46:33.851Z,5.83
2019-04-04T10:49:11.926Z,6.27
2019-04-04T10:51:49.949Z,6.47
2019-04-04T10:54:26.272Z,6.67
2019-04-04T10:57:05.323Z,6.37
2019-04-04T10:59:41.145Z,6.33
2019-04-04T11:02:15.656Z,9.87
2019-04-04T11:04:50.160Z,12.53
2019-04-04T11:07:23.218Z,9.50
2019-04-04T11:09:59.610Z,7.03
2019-04-04T11:12:38.091Z,9.97
2019-04-04T11:15:12.351Z,7.87
2019-04-04T11:17:46.501Z,6.77
2019-04-04T11:20:21.405Z,9.63
2019-04-04T11:22:56.462Z,11.17
2019-04-04T11:25:33.324Z,7.10
2019-04-04T11:28:08.405Z,6.60
2019-04-04T11:30:43.804Z,6.93
2019-04-04T11:33:21.329Z,9.67
2019-04-04T11:35:56.487Z,7.40
2019-04-04T11:38:31.977Z,9.00
2019-04-04T11:41:12.438Z,8.00
2019-04-04T11:43:46.530Z,7.23
2019-04-04T11:46:23.284Z,5.77
2019-04-04T11:48:58.477Z,8.90
2019-04-04T11:51:34.061Z,10.70
2019-04-04T11:54:09.878Z,9.73
2019-04-04T11:56:42.760Z,4.80
2019-04-04T11:59:21.744Z,5.47
2019-04-04T12:01:57.919Z,9.07
2019-04-04T12:04:34.617Z,6.70
2019-04-04T12:07:10.701Z,8.40
2019-04-04T12:09:45.130Z,6.43
2019-04-04T12:12:19.916Z,7.00
2019-04-04T12:14:56.927Z,7.53
2019-04-04T12:17:33.466Z,6.20
2019-04-04T12:20:10.428Z,7.80
2019-04-04T12:22:43.691Z,12.53
2019-04-04T12:25:18.055Z,11.17
2019-04-04T12:27:52.573Z,7.87
2019-04-04T12:30:27.855Z,8.37
2019-04-04T12:33:02.449Z,6.83
2019-04-04T12:35:41.536Z,5.77
2019-04-04T12:38:14.408Z,4.67
2019-04-04T12:40:49.345Z,6.03
2019-04-04T12:43:22.804Z,6.77
2019-04-04T12:46:00.461Z,7.47
2019-04-04T12:48:36.111Z,6.30
2019-04-04T12:51:11.268Z,6.20
2019-04-04T12:53:45.281Z,6.47
2019-04-04T12:56:20.168Z,6.80
2019-04-04T12:58:54.018Z,7.40
2019-04-04T13:01:28.038Z,7.07
2019-04-04T13:04:01.021Z,6.90
2019-04-04T13:06:34.655Z,6.80
2019-04-04T13:09:10.380Z,6.47
2019-04-04T13:11:44.634Z,6.60
2019-04-04T13:14:20.568Z,6.70
2019-04-04T13:16:57.217Z,6.70
2019-04-04T13:19:34.065Z,6.80
2019-04-04T13:22:09.868Z,7.50
2019-04-04T13:24:45.172Z,7.87
2019-04-04T13:27:26.238Z,7.70
2019-04-04T13:30:02.080Z,7.83
2019-04-04T13:32:39.645Z,9.73
2019-04-04T13:35:16.704Z,8.07
2019-04-04T13:37:50.492Z,8.13
2019-04-04T13:40:27.818Z,8.17
2019-04-04T13:43:07.274Z,9.57
2019-04-04T13:45:41.436Z,10.23
2019-04-04T13:48:17.868Z,7.43
2019-04-04T13:50:55.575Z,8.30
2019-04-04T13:53:31.284Z,8.23
2019-04-04T13:56:06.510Z,7.30
2019-04-04T13:58:41.143Z,8.30
2019-04-04T14:01:16.004Z,9.53
2019-04-04T14:03:52.733Z,7.43
2019-04-04T14:06:28.782Z,9.27
2019-04-04T14:09:06.801Z,7.30
2019-04-04T14:11:47.802Z,6.80
2019-04-04T14:14:21.918Z,6.07
2019-04-04T14:16:56.910Z,8.90
2019-04-04T14:19:31.566Z,6.57
2019-04-04T14:22:08.428Z,8.70
2019-04-04T14:24:43.969Z,7.00
2019-04-04T14:27:20.482Z,10.10
2019-04-04T14:29:58.060Z,9.10
2019-04-04T14:32:36.392Z,8.27
2019-04-04T14:35:14.031Z,9.07
2019-04-04T14:37:55.925Z,10.63
2019-04-04T14:40:33.489Z,12.07
2019-04-04T14:43:09.939Z,11.93
2019-04-04T14:45:46.985Z,9.77
2019-04-04T14:48:24.802Z,10.37
2019-04-04T14:50:59.804Z,9.13
2019-04-04T14:53:35.509Z,8.67
2019-04-04T14:56:09.918Z,9.63
2019-04-04T14:58:43.346Z,10.17
2019-04-04T15:01:26.964Z,11.63
2019-04-04T15:04:04.442Z,13.90
2019-04-04T15:06:45.688Z,14.00
2019-04-04T15:09:20.307Z,11.70
2019-04-04T15:11:53.932Z,12.27
2019-04-04T15:14:28.666Z,10.50
2019-04-04T15:17:05.069Z,10.93
2019-04-04T15:19:40.860Z,9.60
2019-04-04T15:22:15.144Z,9.10
2019-04-04T15:24:48.806Z,9.57
2019-04-04T15:27:24.796Z,8.60
2019-04-04T15:29:59.537Z,8.93
2019-04-04T15:32:36.008Z,8.60
2019-04-04T15:35:11.011Z,8.07
2019-04-04T15:37:46.906Z,10.07
2019-04-04T15:40:22.079Z,9.77
2019-04-04T15:42:58.790Z,8.10
2019-04-04T15:45:32.971Z,7.57
2019-04-04T15:48:16.090Z,8.83
2019-04-04T15:50:59.733Z,8.20
2019-04-04T15:53:34.318Z,12.10
2019-04-04T15:56:11.778Z,12.43
2019-04-04T15:58:48.300Z,14.07
2019-04-04T16:01:26.822Z,12.33
2019-04-04T16:04:01.548Z,11.73
2019-04-04T16:06:35.684Z,12.10
2019-04-04T16:09:12.854Z,12.97
2019-04-04T16:11:49.678Z,11.47
2019-04-04T16:14:22.450Z,10.27
2019-04-04T16:16:57.948Z,10.33
2019-04-04T16:19:31.428Z,10.30
2019-04-04T16:22:05.234Z,10.83
2019-04-04T16:24:40.980Z,11.07
2019-04-04T16:27:15.490Z,11.97
2019-04-04T16:29:52.452Z,13.00
2019-04-04T16:32:31.223Z,14.03
2019-04-04T16:35:09.552Z,14.73
2019-04-04T16:37:44.540Z,15.70
2019-04-04T16:40:19.215Z,16.77
2019-04-04T16:42:54.988Z,14.20
2019-04-04T16:45:31.482Z,13.03
2019-04-04T16:48:09.300Z,13.80
2019-04-04T16:50:44.754Z,17.37
2019-04-04T16:53:19.175Z,15.83
2019-04-04T16:55:54.271Z,15.73
2019-04-04T16:58:30.108Z,14.70
2019-04-04T17:01:11.970Z,16.23
2019-04-04T17:04:00.675Z,14.80
2019-04-04T17:06:27.450Z,13.80
2019-04-04T17:09:04.321Z,15.57
2019-04-04T17:11:39.167Z,13.57
2019-04-04T17:14:13.042Z,13.20
2019-04-04T17:16:48.339Z,13.90
2019-04-04T17:19:24.165Z,13.33
2019-04-04T17:21:57.806Z,16.60
2019-04-04T17:24:34.462Z,16.10
2019-04-04T17:27:11.870Z,14.90
2019-04-04T17:29:48.982Z,15.10
2019-04-04T17:32:27.305Z,15.90
2019-04-04T17:35:04.203Z,16.37
2019-04-04T17:37:41.821Z,14.47
2019-04-04T17:40:15.411Z,16.00
2019-04-04T17:42:49.897Z,19.80
2019-04-04T17:45:24.653Z,18.13
2019-04-04T17:47:59.337Z,19.83
2019-04-04T17:50:37.245Z,15.80
2019-04-04T17:53:14.341Z,18.40
2019-04-04T17:55:48.788Z,15.13
2019-04-04T17:58:24.239Z,15.97
2019-04-04T18:00:59.958Z,17.13
2019-04-04T18:03:35.352Z,15.90
2019-04-04T18:06:09.139Z,16.37
2019-04-04T18:08:44.394Z,17.87
2019-04-04T18:11:21.057Z,16.93
2019-04-04T18:14:01.136Z,19.53
2019-04-04T18:16:33.163Z,18.30
2019-04-04T18:19:08.363Z,16.13
2019-04-04T18:21:43.627Z,17.00
2019-04-04T18:24:17.377Z,17.83
2019-04-04T18:26:53.454Z,17.00
2019-04-04T18:29:27.316Z,16.20
2019-04-04T18:32:02.821Z,20.77
2019-04-04T18:34:38.091Z,18.57
2019-04-04T18:37:20.696Z,17.73
2019-04-04T18:39:54.978Z,22.00
2019-04-04T18:42:32.055Z,21.20
2019-04-04T18:45:07.702Z,23.17
2019-04-04T18:47:41.208Z,24.90
2019-04-04T18:50:16.647Z,24.70
2019-04-04T18:52:51.329Z,26.83
2019-04-04T18:55:27.043Z,27.40
2019-04-04T18:58:01.772Z,32.20
2019-04-04T19:00:43.493Z,34.23
2019-04-04T19:03:19.953Z,33.00
2019-04-04T19:05:54.892Z,34.30
2019-04-04T19:08:30.754Z,33.37
2019-04-04T19:11:08.102Z,31.07
2019-04-04T19:13:44.470Z,28.60
2019-04-04T19:16:17.842Z,29.43
2019-04-04T19:18:53.615Z,24.70
2019-04-04T19:21:28.117Z,26.50
2019-04-04T19:24:01.822Z,26.07
2019-04-04T19:26:36.950Z,24.57
2019-04-04T19:29:11.473Z,25.47
2019-04-04T19:31:44.836Z,24.60
2019-04-04T19:34:20.370Z,23.90
2019-04-04T19:36:56.069Z,24.40
2019-04-04T19:39:30.064Z,23.13
2019-04-04T19:42:05.131Z,22.77
2019-04-04T19:44:38.832Z,26.27
2019-04-04T19:47:13.809Z,24.17
2019-04-04T19:49:47.596Z,25.90
2019-04-04T19:52:21.793Z,24.00
2019-04-04T19:54:55.374Z,21.50
2019-04-04T19:57:29.538Z,27.73
2019-04-04T20:00:06.856Z,24.10
2019-04-04T20:02:44.010Z,25.10
2019-04-04T20:05:17.542Z,25.00
2019-04-04T20:07:53.010Z,23.17
2019-04-04T20:10:26.513Z,24.00
2019-04-04T20:13:04.781Z,27.13
2019-04-04T20:15:38.639Z,22.83
2019-04-04T20:18:14.717Z,22.03
2019-04-04T20:20:48.202Z,25.37
2019-04-04T20:23:21.928Z,23.27
2019-04-04T20:25:55.041Z,21.60
2019-04-04T20:28:29.112Z,21.00
2019-04-04T20:31:03.576Z,20.97
2019-04-04T20:33:39.059Z,19.13
2019-04-04T20:36:14.150Z,19.83
2019-04-04T20:38:47.823Z,19.83
2019-04-04T20:41:21.952Z,22.67
2019-04-04T20:43:56.893Z,19.50
2019-04-04T20:46:31.132Z,16.10
2019-04-04T20:49:05.872Z,15.47
2019-04-04T20:51:40.829Z,15.53
2019-04-04T20:54:15.795Z,16.77
2019-04-04T20:56:50.841Z,15.97
2019-04-04T20:59:28.036Z,14.87
2019-04-04T21:02:02.973Z,16.27
2019-04-04T21:04:39.176Z,17.57
2019-04-04T21:07:12.805Z,15.83
2019-04-04T21:09:46.784Z,13.57
2019-04-04T21:12:20.209Z,13.63
2019-04-04T21:14:54.484Z,12.97
2019-04-04T21:17:28.039Z,19.97
2019-04-04T21:20:03.438Z,12.77
2019-04-04T21:22:36.735Z,13.40
2019-04-04T21:25:10.323Z,12.63
2019-04-04T21:27:45.238Z,13.50
2019-04-04T21:30:21.023Z,17.20
2019-04-04T21:32:53.997Z,17.60
2019-04-04T21:35:28.764Z,13.90
2019-04-04T21:38:02.178Z,18.90
2019-04-04T21:40:37.433Z,16.93
2019-04-04T21:43:12.089Z,15.23
2019-04-04T21:45:47.570Z,15.83
2019-04-04T21:48:20.954Z,18.80
2019-04-04T21:50:54.642Z,19.73
2019-04-04T21:53:28.871Z,16.57
2019-04-04T21:56:03.533Z,18.50
2019-04-04T21:58:36.893Z,18.93
2019-04-04T22:01:12.769Z,17.40
2019-04-04T22:03:46.238Z,18.30
2019-04-04T22:06:21.068Z,20.03
2019-04-04T22:08:54.452Z,20.27
2019-04-04T22:11:29.958Z,21.20
2019-04-04T22:14:03.263Z,21.43
2019-04-04T22:16:38.431Z,18.73
2019-04-04T22:19:11.773Z,15.73
2019-04-04T22:21:45.054Z,16.63
2019-04-04T22:24:22.172Z,15.23
2019-04-04T22:26:57.316Z,15.20
2019-04-04T22:29:31.500Z,17.73
2019-04-04T22:32:05.179Z,20.27
2019-04-04T22:34:40.002Z,28.47
2019-04-04T22:37:14.911Z,15.27
2019-04-04T22:39:48.186Z,20.53
2019-04-04T22:42:21.847Z,14.77
2019-04-04T22:44:55.739Z,14.17
2019-04-04T22:47:29.521Z,14.07
2019-04-04T22:50:06.853Z,11.93
2019-04-04T22:52:41.266Z,12.67
2019-04-04T22:55:14.671Z,12.60
2019-04-04T22:57:49.979Z,10.73
2019-04-04T23:00:25.667Z,11.53
2019-04-04T23:03:00.653Z,10.50
2019-04-04T23:05:35.610Z,10.80
2019-04-04T23:08:10.869Z,10.30
2019-04-04T23:10:45.602Z,11.13
2019-04-04T23:13:19.344Z,11.30
2019-04-04T23:15:54.215Z,10.77
2019-04-04T23:18:28.686Z,9.87
2019-04-04T23:21:03.296Z,9.93
2019-04-04T23:23:36.614Z,8.73
2019-04-04T23:26:09.954Z,9.43
2019-04-04T23:28:44.674Z,8.00
2019-04-04T23:31:17.830Z,8.50
2019-04-04T23:33:53.117Z,10.73
2019-04-04T23:36:34.839Z,8.90
2019-04-04T23:39:02.164Z,7.87
2019-04-04T23:41:36.328Z,12.43
2019-04-04T23:44:12.679Z,11.20
2019-04-04T23:46:47.545Z,10.23
2019-04-04T23:49:23.055Z,11.17
2019-04-04T23:51:57.324Z,7.93
2019-04-04T23:54:32.031Z,8.53
2019-04-04T23:57:05.009Z,7.23
2019-04-04T23:59:38.466Z,10.00
